Time;durP1;ratioP1;P1;durP2;ratioP2;P2;SDS_P1;SDS_P2;PMS_P1;PMS_P2;Temp;Humidity;BMP_temperature;BMP_pressure;BME280_temperature;BME280_humidity;BME280_pressure;Samples;Min_cycle;Max_cycle;Signal;HPM_P1;HPM_P2
2023/04/26 00:02:03;;;;;;;1.07;1.07;;;5.00;99.90;;;;;;4994188;28;20182;-70
2023/04/26 00:04:29;;;;;;;0.60;0.45;;;5.00;99.90;;;;;;4993854;28;20192;-70
2023/04/26 00:06:55;;;;;;;0.40;0.40;;;5.10;99.90;;;;;;4993687;28;20691;-70
2023/04/26 00:09:20;;;;;;;0.63;0.63;;;5.20;99.90;;;;;;4993925;28;20180;-69
2023/04/26 00:11:46;;;;;;;0.40;0.40;;;5.20;99.90;;;;;;4993827;28;20246;-70
2023/04/26 00:14:12;;;;;;;0.73;0.67;;;5.10;99.90;;;;;;4993841;28;20274;-70
2023/04/26 00:16:38;;;;;;;0.90;0.60;;;5.10;99.90;;;;;;4993996;28;20196;-70
2023/04/26 00:19:03;;;;;;;0.30;0.30;;;5.10;99.90;;;;;;4993785;28;20403;-70
2023/04/26 00:21:30;;;;;;;0.40;0.40;;;5.00;99.90;;;;;;4993894;28;20187;-69
2023/04/26 00:23:56;;;;;;;0.35;0.35;;;4.90;99.90;;;;;;4993707;28;20256;-70
2023/04/26 00:26:22;;;;;;;0.40;0.40;;;5.00;99.90;;;;;;4993762;28;20176;-70
2023/04/26 00:28:47;;;;;;;0.40;0.40;;;4.90;99.90;;;;;;4993673;28;20531;-70
2023/04/26 00:31:16;;;;;;;0.40;0.40;;;4.80;99.90;;;;;;4993838;28;20191;-70
2023/04/26 00:33:43;;;;;;;2.25;2.15;;;4.70;99.90;;;;;;4993754;28;20192;-70
2023/04/26 00:36:09;;;;;;;0.73;0.73;;;4.60;99.90;;;;;;4993604;28;20179;-69
2023/04/26 00:38:35;;;;;;;0.50;0.50;;;4.60;99.90;;;;;;4993459;28;20535;-69
2023/04/26 00:41:00;;;;;;;0.40;0.40;;;4.60;99.90;;;;;;4993716;28;20168;-69
2023/04/26 00:43:26;;;;;;;5.20;1.37;;;4.60;99.90;;;;;;4993670;28;20188;-70
2023/04/26 00:45:52;;;;;;;0.87;0.87;;;4.70;99.90;;;;;;4993558;28;20415;-70
2023/04/26 00:48:19;;;;;;;0.40;0.40;;;4.70;99.90;;;;;;4993411;28;20247;-70
2023/04/26 00:50:46;;;;;;;0.40;0.40;;;4.60;99.90;;;;;;4993586;28;20203;-69
2023/04/26 00:53:13;;;;;;;0.40;0.40;;;4.30;99.90;;;;;;4993963;28;20694;-70
2023/04/26 00:55:40;;;;;;;0.40;0.40;;;4.40;99.90;;;;;;4997272;28;20195;-69
2023/04/26 00:58:06;;;;;;;0.40;0.40;;;4.40;99.90;;;;;;4997079;28;20227;-70
2023/04/26 01:00:32;;;;;;;0.50;0.50;;;4.40;99.90;;;;;;4997293;28;20684;-69
2023/04/26 01:02:58;;;;;;;0.70;0.53;;;4.50;99.90;;;;;;4997289;28;20231;-70
2023/04/26 01:05:23;;;;;;;0.60;0.60;;;4.70;99.90;;;;;;4996872;28;20203;-70
2023/04/26 01:07:49;;;;;;;0.80;0.80;;;4.60;99.90;;;;;;4996937;28;20840;-70
2023/04/26 01:10:16;;;;;;;0.38;0.38;;;4.60;99.90;;;;;;4996921;28;20175;-69
2023/04/26 01:12:41;;;;;;;0.30;0.30;;;4.70;99.90;;;;;;4997016;28;20573;-69
2023/04/26 01:15:08;;;;;;;0.40;0.40;;;4.70;99.90;;;;;;4996831;28;20188;-70
2023/04/26 01:17:36;;;;;;;0.88;0.88;;;4.70;99.90;;;;;;4996664;28;20249;-70
2023/04/26 01:20:02;;;;;;;0.50;0.50;;;4.70;99.90;;;;;;4996734;28;20312;-70
2023/04/26 01:22:31;;;;;;;0.30;0.30;;;4.70;99.90;;;;;;4995450;28;20180;-70
2023/04/26 01:25:00;;;;;;;0.60;0.60;;;4.50;99.90;;;;;;4996587;28;20565;-69
2023/04/26 01:27:26;;;;;;;2.88;0.93;;;4.40;99.90;;;;;;4996591;28;20173;-70
2023/04/26 01:29:51;;;;;;;0.40;0.40;;;4.30;99.90;;;;;;4996775;28;20176;-69
2023/04/26 01:32:17;;;;;;;0.70;0.70;;;4.20;99.90;;;;;;4996635;28;20215;-70
2023/04/26 01:34:43;;;;;;;0.40;0.40;;;4.00;99.90;;;;;;4996416;28;20218;-69
2023/04/26 01:37:08;;;;;;;0.30;0.30;;;4.20;99.90;;;;;;4996402;28;20168;-70
2023/04/26 01:39:35;;;;;;;0.60;0.60;;;4.00;99.90;;;;;;4996649;28;20164;-69
2023/04/26 01:42:01;;;;;;;0.73;0.65;;;4.10;99.90;;;;;;4995255;28;20255;-69
2023/04/26 01:44:27;;;;;;;0.40;0.40;;;4.20;99.90;;;;;;4996426;28;20243;-69
2023/04/26 01:46:53;;;;;;;0.73;0.73;;;4.20;99.90;;;;;;4996034;28;20172;-70
2023/04/26 01:49:18;;;;;;;0.63;0.63;;;4.30;99.90;;;;;;4996646;28;20179;-69
2023/04/26 01:51:44;;;;;;;1.83;1.73;;;4.10;99.90;;;;;;4994679;28;20231;-70
2023/04/26 01:54:10;;;;;;;0.40;0.40;;;4.20;99.90;;;;;;4996333;28;20192;-70
2023/04/26 01:56:35;;;;;;;0.40;0.40;;;4.00;99.90;;;;;;4996311;28;20537;-69
2023/04/26 01:59:01;;;;;;;1.00;1.00;;;4.00;99.90;;;;;;4995881;28;20247;-70
2023/04/26 02:01:27;;;;;;;0.40;0.40;;;4.00;99.90;;;;;;4996158;28;20172;-69
2023/04/26 02:03:52;;;;;;;0.40;0.40;;;3.90;99.90;;;;;;4995950;28;20271;-70
2023/04/26 02:06:18;;;;;;;0.50;0.50;;;3.90;99.90;;;;;;4995436;28;20536;-70
2023/04/26 02:08:44;;;;;;;0.30;0.30;;;4.00;99.90;;;;;;4995682;28;20659;-70
2023/04/26 02:11:10;;;;;;;3.20;3.00;;;4.00;99.90;;;;;;4995872;28;20886;-70
2023/04/26 02:13:36;;;;;;;0.40;0.40;;;3.90;99.90;;;;;;4995748;28;20227;-69
2023/04/26 02:16:02;;;;;;;4.30;3.03;;;3.80;99.90;;;;;;4995696;28;20415;-70
2023/04/26 02:18:28;;;;;;;0.50;0.50;;;3.70;99.90;;;;;;4995540;28;20655;-70
2023/04/26 02:20:54;;;;;;;1.90;1.80;;;3.70;99.90;;;;;;4995618;28;20255;-70
2023/04/26 02:23:20;;;;;;;0.88;0.88;;;3.80;99.90;;;;;;4995544;28;20914;-70
2023/04/26 02:25:47;;;;;;;0.30;0.30;;;3.60;99.90;;;;;;4995530;28;20184;-68
2023/04/26 02:28:13;;;;;;;0.40;0.40;;;3.50;99.90;;;;;;4995391;28;20172;-69
2023/04/26 02:30:39;;;;;;;0.40;0.40;;;3.50;99.90;;;;;;4995502;28;20203;-69
2023/04/26 02:33:05;;;;;;;0.83;0.83;;;3.30;99.90;;;;;;4995317;28;20239;-68
2023/04/26 02:35:30;;;;;;;0.50;0.50;;;3.40;99.90;;;;;;4995540;28;20175;-70
2023/04/26 02:37:56;;;;;;;0.40;0.40;;;3.40;99.90;;;;;;4995117;28;20164;-70
2023/04/26 02:40:21;;;;;;;0.50;0.50;;;3.40;99.90;;;;;;4995373;28;20175;-70
2023/04/26 02:42:48;;;;;;;0.40;0.40;;;3.50;99.90;;;;;;4995356;28;20172;-70
2023/04/26 02:45:13;;;;;;;0.50;0.50;;;3.40;99.90;;;;;;4995057;28;20188;-70
2023/04/26 02:47:39;;;;;;;0.50;0.50;;;3.40;99.90;;;;;;4994948;28;20194;-70
2023/04/26 02:50:09;;;;;;;1.23;0.70;;;3.60;99.90;;;;;;4995137;28;20176;-69
2023/04/26 02:52:35;;;;;;;0.40;0.40;;;3.50;99.90;;;;;;4994972;28;20196;-69
2023/04/26 02:55:03;;;;;;;0.40;0.40;;;3.40;99.90;;;;;;4994937;28;20252;-70
2023/04/26 02:57:30;;;;;;;0.40;0.40;;;3.40;99.90;;;;;;4994924;28;20172;-69
2023/04/26 02:59:56;;;;;;;2.35;2.25;;;3.40;99.90;;;;;;4995022;28;20309;-70
2023/04/26 03:02:21;;;;;;;0.40;0.40;;;3.40;99.90;;;;;;4994860;28;20172;-70
2023/04/26 03:04:47;;;;;;;0.40;0.40;;;3.40;99.90;;;;;;4994838;28;20428;-69
2023/04/26 03:07:13;;;;;;;0.40;0.40;;;3.40;99.90;;;;;;4994656;28;20195;-70
2023/04/26 03:09:38;;;;;;;0.40;0.40;;;3.40;99.90;;;;;;4994894;28;20632;-70
2023/04/26 03:12:07;;;;;;;0.30;0.30;;;3.30;99.90;;;;;;4994376;28;20463;-70
2023/04/26 03:14:33;;;;;;;0.40;0.40;;;3.40;99.90;;;;;;4994610;28;20223;-70
2023/04/26 03:16:59;;;;;;;0.75;0.75;;;3.50;99.90;;;;;;4993873;28;20176;-70
2023/04/26 03:19:28;;;;;;;0.40;0.40;;;3.50;99.90;;;;;;4994537;28;20644;-69
2023/04/26 03:21:54;;;;;;;0.60;0.60;;;3.50;99.90;;;;;;4994600;28;20172;-70
2023/04/26 03:24:20;;;;;;;0.40;0.40;;;3.40;99.90;;;;;;4994620;28;20188;-70
2023/04/26 03:26:45;;;;;;;1.23;1.23;;;3.40;99.90;;;;;;4994287;28;20177;-70
2023/04/26 03:29:11;;;;;;;0.40;0.40;;;3.50;99.90;;;;;;4994648;28;20230;-70
2023/04/26 03:31:37;;;;;;;0.37;0.37;;;3.50;99.90;;;;;;4993206;28;20199;-70
2023/04/26 03:34:03;;;;;;;0.80;0.80;;;3.60;99.90;;;;;;4994436;28;20195;-70
2023/04/26 03:36:29;;;;;;;0.40;0.40;;;3.60;99.90;;;;;;4994358;28;20267;-70
2023/04/26 03:38:55;;;;;;;0.80;0.80;;;3.70;99.90;;;;;;4994019;28;20258;-69
2023/04/26 03:41:21;;;;;;;0.40;0.40;;;3.90;99.90;;;;;;4994273;28;20180;-69
2023/04/26 03:43:47;;;;;;;0.80;0.70;;;3.70;99.90;;;;;;4994241;28;20905;-70
2023/04/26 03:46:13;;;;;;;0.40;0.40;;;3.60;99.90;;;;;;4994326;28;20215;-70
2023/04/26 03:48:39;;;;;;;0.40;0.40;;;3.80;99.90;;;;;;4994227;28;20403;-70
2023/04/26 03:51:05;;;;;;;0.40;0.40;;;3.70;99.90;;;;;;4994078;28;20199;-70
2023/04/26 03:53:30;;;;;;;0.63;0.63;;;3.60;99.90;;;;;;4992648;28;20211;-70
2023/04/26 03:55:56;;;;;;;0.50;0.50;;;3.80;99.90;;;;;;4994301;28;20400;-68
2023/04/26 03:58:23;;;;;;;0.38;0.38;;;3.70;99.90;;;;;;4993886;28;20176;-69
2023/04/26 04:00:49;;;;;;;0.38;0.38;;;3.60;99.90;;;;;;4994214;28;20184;-70
2023/04/26 04:03:15;;;;;;;0.70;0.70;;;3.40;99.90;;;;;;4994103;28;20682;-69
2023/04/26 04:05:40;;;;;;;0.33;0.33;;;3.70;99.90;;;;;;4992702;28;20176;-70
2023/04/26 04:08:06;;;;;;;0.40;0.40;;;3.60;99.90;;;;;;4993744;28;20180;-70
2023/04/26 04:10:31;;;;;;;0.40;0.40;;;3.60;99.90;;;;;;4994010;28;20631;-69
2023/04/26 04:12:58;;;;;;;0.30;0.30;;;3.50;99.90;;;;;;4994009;28;20175;-70
2023/04/26 04:15:23;;;;;;;0.40;0.40;;;3.50;99.90;;;;;;4993859;28;20755;-69
2023/04/26 04:17:49;;;;;;;0.40;0.40;;;3.50;99.90;;;;;;4993753;28;20222;-70
2023/04/26 04:20:15;;;;;;;0.40;0.40;;;3.60;99.90;;;;;;4993940;28;20172;-70
2023/04/26 04:22:41;;;;;;;0.83;0.83;;;3.70;99.90;;;;;;4993919;28;20419;-69
2023/04/26 04:25:09;;;;;;;1.27;1.27;;;3.70;99.90;;;;;;4993712;28;20200;-70
2023/04/26 04:27:35;;;;;;;0.40;0.40;;;3.70;99.90;;;;;;4993891;28;20176;-69
2023/04/26 04:30:02;;;;;;;0.32;0.32;;;3.70;99.90;;;;;;4997473;28;20179;-70
2023/04/26 04:32:31;;;;;;;0.40;0.40;;;3.70;99.90;;;;;;4997752;28;20203;-70
2023/04/26 04:34:57;;;;;;;0.40;0.40;;;3.50;99.90;;;;;;4997567;28;20223;-70
2023/04/26 04:37:24;;;;;;;0.40;0.40;;;3.60;99.90;;;;;;4997441;28;20703;-69
2023/04/26 04:39:51;;;;;;;0.40;0.40;;;4.00;99.90;;;;;;4997583;28;20601;-70
2023/04/26 04:42:17;;;;;;;0.30;0.30;;;3.80;99.90;;;;;;4997503;28;20632;-69
2023/04/26 04:44:44;;;;;;;1.57;1.57;;;3.80;99.90;;;;;;4997361;28;20254;-70
2023/04/26 04:47:10;;;;;;;0.73;0.73;;;3.80;99.90;;;;;;4997226;28;20407;-69
2023/04/26 04:49:36;;;;;;;0.50;0.50;;;3.90;99.90;;;;;;4997472;28;20226;-69
2023/04/26 04:52:02;;;;;;;0.60;0.60;;;4.20;99.90;;;;;;4997320;28;20208;-69
2023/04/26 04:54:28;;;;;;;0.60;0.60;;;3.90;99.90;;;;;;4997227;28;20431;-70
2023/04/26 04:56:54;;;;;;;0.40;0.40;;;4.10;99.90;;;;;;4997129;28;20177;-70
2023/04/26 04:59:20;;;;;;;0.40;0.40;;;4.10;99.90;;;;;;4997333;28;20243;-69
2023/04/26 05:01:45;;;;;;;0.40;0.40;;;4.00;99.90;;;;;;4997153;28;20169;-69
2023/04/26 05:04:11;;;;;;;0.40;0.40;;;4.50;99.90;;;;;;4997136;28;20188;-69
2023/04/26 05:06:37;;;;;;;0.70;0.70;;;4.30;99.90;;;;;;4997254;28;20760;-69
2023/04/26 05:09:04;;;;;;;0.60;0.60;;;4.70;99.90;;;;;;4996915;28;20194;-69
2023/04/26 05:11:31;;;;;;;1.02;0.60;;;4.60;99.90;;;;;;4996974;28;20200;-70
2023/04/26 05:13:57;;;;;;;0.82;0.82;;;4.70;99.90;;;;;;4995650;28;20544;-70
2023/04/26 05:16:22;;;;;;;0.40;0.40;;;4.90;99.90;;;;;;4996922;28;20183;-69
2023/04/26 05:18:48;;;;;;;0.80;0.70;;;5.00;99.90;;;;;;4996556;28;20180;-70
2023/04/26 05:21:14;;;;;;;0.93;0.93;;;5.10;99.90;;;;;;4996722;28;20271;-70
2023/04/26 05:23:40;;;;;;;0.40;0.40;;;5.30;99.90;;;;;;4996609;28;20193;-70
2023/04/26 05:26:06;;;;;;;0.53;0.53;;;5.40;99.90;;;;;;4996752;28;20186;-69
2023/04/26 05:28:33;;;;;;;0.40;0.40;;;5.60;99.90;;;;;;4996617;28;20589;-70
2023/04/26 05:31:00;;;;;;;0.52;0.52;;;5.80;99.90;;;;;;4996790;28;20292;-70
2023/04/26 05:33:27;;;;;;;0.60;0.60;;;5.90;99.90;;;;;;4996428;28;20182;-70
2023/04/26 05:35:53;;;;;;;0.70;0.70;;;6.10;99.90;;;;;;4996719;28;20171;-69
2023/04/26 05:38:20;;;;;;;0.63;0.63;;;6.20;99.90;;;;;;4996459;28;20266;-70
2023/04/26 05:40:47;;;;;;;4.63;1.90;;;6.30;99.60;;;;;;4995557;28;20185;-69
2023/04/26 05:43:13;;;;;;;2.17;1.77;;;6.70;99.90;;;;;;4996459;28;20179;-70
2023/04/26 05:45:38;;;;;;;0.55;0.55;;;6.50;98.90;;;;;;4996329;28;20179;-70
2023/04/26 05:48:04;;;;;;;0.70;0.70;;;7.10;99.80;;;;;;4996053;28;20183;-70
2023/04/26 05:50:30;;;;;;;2.63;2.45;;;8.70;98.80;;;;;;4996367;28;20199;-70
2023/04/26 05:52:56;;;;;;;0.70;0.70;;;10.60;96.10;;;;;;4996163;28;20190;-70
2023/04/26 05:55:22;;;;;;;0.90;0.90;;;12.50;92.30;;;;;;4996043;28;20424;-70
2023/04/26 05:57:48;;;;;;;1.77;1.67;;;14.00;88.60;;;;;;4995975;28;20179;-70
2023/04/26 06:00:14;;;;;;;1.20;1.20;;;14.90;82.00;;;;;;4996267;28;20766;-70
2023/04/26 06:02:40;;;;;;;1.27;1.27;;;15.30;76.80;;;;;;4996217;28;20179;-70
2023/04/26 06:05:07;;;;;;;2.50;1.27;;;15.70;72.50;;;;;;4996142;28;20429;-70
2023/04/26 06:07:33;;;;;;;1.60;1.50;;;16.40;70.20;;;;;;4995694;28;20179;-71
2023/04/26 06:10:01;;;;;;;2.37;1.30;;;17.40;67.00;;;;;;4995938;28;20466;-71
2023/04/26 06:12:27;;;;;;;1.27;1.27;;;18.40;62.60;;;;;;4995782;28;20199;-71
2023/04/26 06:14:52;;;;;;;2.10;2.00;;;19.20;58.90;;;;;;4995676;28;20485;-71
2023/04/26 06:17:18;;;;;;;0.57;0.57;;;19.70;57.40;;;;;;4995889;28;20159;-70
2023/04/26 06:19:43;;;;;;;2.20;0.90;;;19.60;55.70;;;;;;4995867;28;20554;-71
2023/04/26 06:22:09;;;;;;;0.77;0.77;;;19.00;54.80;;;;;;4995594;28;20207;-71
2023/04/26 06:24:35;;;;;;;0.50;0.50;;;18.20;56.50;;;;;;4995594;28;20301;-70
2023/04/26 06:27:01;;;;;;;1.00;0.93;;;17.60;57.60;;;;;;4995569;28;20410;-70
2023/04/26 06:29:31;;;;;;;1.27;1.20;;;17.40;57.90;;;;;;4995686;28;20172;-71
2023/04/26 06:31:56;;;;;;;1.13;1.10;;;16.90;56.70;;;;;;4994402;28;20214;-70
2023/04/26 06:34:22;;;;;;;1.17;0.50;;;16.00;59.20;;;;;;4994009;28;20443;-70
2023/04/26 06:36:48;;;;;;;0.60;0.60;;;15.00;59.60;;;;;;4995166;28;20200;-71
2023/04/26 06:39:13;;;;;;;1.57;1.47;;;14.00;62.00;;;;;;4995411;28;20168;-70
2023/04/26 06:41:39;;;;;;;1.80;1.20;;;13.00;64.70;;;;;;4995396;28;20173;-70
2023/04/26 06:44:04;;;;;;;0.83;0.83;;;12.40;66.70;;;;;;4995360;28;20599;-70
2023/04/26 06:46:30;;;;;;;0.80;0.80;;;12.00;71.90;;;;;;4995639;28;20173;-70
2023/04/26 06:48:56;;;;;;;2.53;1.33;;;12.20;77.00;;;;;;4995071;28;20215;-70
2023/04/26 06:51:21;;;;;;;2.23;2.03;;;12.50;75.70;;;;;;4994851;28;20262;-70
2023/04/26 06:53:48;;;;;;;0.60;0.60;;;13.00;75.60;;;;;;4995213;28;20192;-70
2023/04/26 06:56:14;;;;;;;0.70;0.70;;;13.60;78.20;;;;;;4995097;28;20204;-70
2023/04/26 06:59:00;;;;;;;1.00;0.93;;;14.20;78.10;;;;;;4994968;28;20469;-70
2023/04/26 07:01:28;;;;;;;0.73;0.73;;;15.00;73.00;;;;;;4995025;28;20183;-70
2023/04/26 07:03:55;;;;;;;0.80;0.80;;;15.60;72.70;;;;;;4994847;28;20876;-71
2023/04/26 07:06:21;;;;;;;0.90;0.90;;;16.50;69.10;;;;;;4994949;28;20413;-70
2023/04/26 07:08:47;;;;;;;0.80;0.80;;;17.30;68.30;;;;;;4994793;28;20485;-70
2023/04/26 07:11:12;;;;;;;1.73;0.93;;;17.80;66.00;;;;;;4994564;28;20450;-71
2023/04/26 07:13:38;;;;;;;0.90;0.90;;;18.30;65.20;;;;;;4994697;28;20199;-71
2023/04/26 07:16:04;;;;;;;0.60;0.50;;;18.40;64.10;;;;;;4994796;28;20270;-71
2023/04/26 07:18:30;;;;;;;1.83;1.03;;;17.90;64.20;;;;;;4994641;28;20176;-71
2023/04/26 07:20:56;;;;;;;0.50;0.50;;;17.90;65.90;;;;;;4994682;28;20624;-70
2023/04/26 07:23:22;;;;;;;0.77;0.77;;;18.70;64.20;;;;;;4994682;28;20762;-71
2023/04/26 07:25:48;;;;;;;0.87;0.87;;;20.10;58.80;;;;;;4994568;28;20401;-71
2023/04/26 07:28:13;;;;;;;0.70;0.70;;;21.00;55.20;;;;;;4994310;28;20414;-71
2023/04/26 07:30:39;;;;;;;0.67;0.60;;;20.30;55.10;;;;;;4994666;28;20240;-70
2023/04/26 07:33:05;;;;;;;0.40;0.40;;;18.70;56.10;;;;;;4994409;28;20169;-70
2023/04/26 07:35:33;;;;;;;0.40;0.40;;;18.10;57.40;;;;;;4994421;28;20463;-70
2023/04/26 07:37:59;;;;;;;0.50;0.50;;;18.00;57.00;;;;;;4994223;28;20234;-70
2023/04/26 07:40:25;;;;;;;0.70;0.70;;;17.30;57.10;;;;;;4994511;28;20419;-71
2023/04/26 07:42:52;;;;;;;0.63;0.63;;;16.20;58.80;;;;;;4994259;28;20260;-70
2023/04/26 07:45:18;;;;;;;1.50;1.40;;;15.10;62.40;;;;;;4994256;28;20431;-70
2023/04/26 07:47:44;;;;;;;0.50;0.40;;;14.30;64.90;;;;;;4994191;28;20411;-70
2023/04/26 07:50:10;;;;;;;0.60;0.50;;;13.80;67.30;;;;;;4994466;28;20405;-69
2023/04/26 07:52:36;;;;;;;0.60;0.60;;;13.50;68.10;;;;;;4994035;28;20210;-70
2023/04/26 07:55:02;;;;;;;0.93;0.93;;;13.40;70.20;;;;;;4994187;28;20428;-71
2023/04/26 07:57:28;;;;;;;2.00;1.80;;;13.40;70.10;;;;;;4993969;28;20540;-71
2023/04/26 07:59:53;;;;;;;1.00;0.80;;;13.20;68.50;;;;;;4994477;28;20416;-70
2023/04/26 08:02:19;;;;;;;0.67;0.67;;;12.90;67.90;;;;;;4994288;28;20238;-70
2023/04/26 08:04:51;;;;;;;0.80;0.80;;;12.90;68.70;;;;;;4993649;28;20220;-70
2023/04/26 08:07:19;;;;;;;1.27;1.07;;;12.80;68.00;;;;;;4994022;28;20172;-71
2023/04/26 08:09:45;;;;;;;0.93;0.70;;;12.70;69.90;;;;;;4994129;28;20506;-71
2023/04/26 08:12:11;;;;;;;0.80;0.80;;;12.70;70.50;;;;;;4993924;28;20537;-71
2023/04/26 08:14:37;;;;;;;0.97;0.97;;;12.60;71.50;;;;;;4993796;28;20431;-71
2023/04/26 08:17:04;;;;;;;1.77;1.67;;;12.50;72.60;;;;;;4993790;28;20725;-71
2023/04/26 08:19:32;;;;;;;0.40;0.40;;;12.60;73.40;;;;;;4994048;28;20223;-71
2023/04/26 08:21:57;;;;;;;2.83;1.83;;;12.70;73.10;;;;;;4994042;28;20418;-71
2023/04/26 08:24:23;;;;;;;30.67;1.27;;;12.80;72.40;;;;;;4993941;28;20447;-71
2023/04/26 08:26:49;;;;;;;0.70;0.70;;;13.00;74.10;;;;;;4993600;28;20184;-72
2023/04/26 08:29:15;;;;;;;0.63;0.60;;;14.40;74.70;;;;;;4994467;28;20190;-69
2023/04/26 08:31:41;;;;;;;0.87;0.87;;;16.70;66.30;;;;;;4994023;28;20190;-69
2023/04/26 08:34:12;;;;;;;0.83;0.57;;;18.10;58.90;;;;;;4993794;28;20919;-69
2023/04/26 08:36:42;;;;;;;0.50;0.50;;;18.60;57.60;;;;;;4993774;28;20658;-69
2023/04/26 08:39:08;;;;;;;0.60;0.60;;;19.00;58.90;;;;;;4993564;28;20408;-69
2023/04/26 08:41:42;;;;;;;0.90;0.70;;;19.10;55.10;;;;;;4993654;28;20418;-69
2023/04/26 08:44:08;;;;;;;0.87;0.87;;;18.30;53.90;;;;;;4993602;28;20487;-69
2023/04/26 08:46:50;;;;;;;0.40;0.40;;;17.30;54.30;;;;;;4993665;28;20412;-69
2023/04/26 08:49:39;;;;;;;1.27;1.20;;;16.50;56.90;;;;;;4993767;28;20736;-71
2023/04/26 08:52:09;;;;;;;0.40;0.40;;;15.80;58.30;;;;;;4993417;28;20466;-69
2023/04/26 08:54:36;;;;;;;0.50;0.50;;;15.20;59.40;;;;;;4993625;28;20451;-69
2023/04/26 08:57:02;;;;;;;0.67;0.67;;;15.00;58.60;;;;;;4993621;28;20422;-69
2023/04/26 08:59:32;;;;;;;1.07;1.07;;;14.90;58.50;;;;;;4993496;28;20902;-69
2023/04/26 09:02:01;;;;;;;5.40;0.87;;;14.70;59.30;;;;;;4993617;28;20458;-69
2023/04/26 09:04:27;;;;;;;0.50;0.50;;;14.70;61.40;;;;;;4993525;28;20804;-69
2023/04/26 09:06:58;;;;;;;0.50;0.50;;;14.60;59.60;;;;;;4993353;28;20418;-71
2023/04/26 09:09:26;;;;;;;0.80;0.80;;;14.20;59.70;;;;;;4993719;28;20411;-71
2023/04/26 09:11:59;;;;;;;0.50;0.50;;;14.10;61.60;;;;;;4993516;28;20862;-70
2023/04/26 09:14:26;;;;;;;0.30;0.30;;;14.30;62.60;;;;;;4993344;28;20433;-70
2023/04/26 09:16:53;;;;;;;1.00;1.00;;;14.30;61.40;;;;;;4996266;28;20399;-69
2023/04/26 09:19:41;;;;;;;0.60;0.60;;;14.20;61.60;;;;;;4996906;28;20418;-69
2023/04/26 09:22:07;;;;;;;0.70;0.50;;;13.80;62.40;;;;;;4996961;28;20417;-69
2023/04/26 09:24:49;;;;;;;0.47;0.47;;;14.10;64.40;;;;;;4996869;28;20938;-69
2023/04/26 09:27:15;;;;;;;1.17;1.07;;;14.20;61.20;;;;;;4996567;28;20888;-70
2023/04/26 09:30:02;;;;;;;0.60;0.60;;;14.40;63.40;;;;;;4997123;28;20418;-70
2023/04/26 09:32:42;;;;;;;0.53;0.53;;;14.50;60.70;;;;;;4996784;28;20454;-70
2023/04/26 09:35:07;;;;;;;0.43;0.43;;;14.20;61.00;;;;;;4996588;28;20941;-69
2023/04/26 09:37:33;;;;;;;0.80;0.80;;;14.00;60.90;;;;;;4996367;28;20413;-69
2023/04/26 09:39:58;;;;;;;0.50;0.50;;;14.10;63.50;;;;;;4996680;28;20176;-69
2023/04/26 09:42:24;;;;;;;0.50;0.50;;;14.30;60.90;;;;;;4996427;28;20187;-69
2023/04/26 09:44:50;;;;;;;0.57;0.57;;;14.30;62.70;;;;;;4996292;28;20211;-69
2023/04/26 09:47:16;;;;;;;0.47;0.47;;;14.20;63.90;;;;;;4996332;28;20176;-69
2023/04/26 09:49:43;;;;;;;0.50;0.50;;;14.10;61.70;;;;;;4996421;28;20414;-69
2023/04/26 09:52:09;;;;;;;1.17;0.83;;;14.30;62.00;;;;;;4996072;28;20297;-69
2023/04/26 09:55:01;;;;;;;0.60;0.60;;;14.40;59.70;;;;;;4996143;28;20518;-69
2023/04/26 09:57:27;;;;;;;0.63;0.63;;;14.50;59.20;;;;;;4993623;28;20182;-69
2023/04/26 09:59:55;;;;;;;0.43;0.43;;;14.60;59.40;;;;;;4996262;28;20453;-69
2023/04/26 10:02:28;;;;;;;0.40;0.40;;;14.60;60.00;;;;;;4996450;28;20695;-70
2023/04/26 10:04:55;;;;;;;0.60;0.60;;;14.50;56.30;;;;;;4995952;28;20831;-69
2023/04/26 10:07:23;;;;;;;0.83;0.83;;;15.20;55.70;;;;;;4995850;28;20412;-70
2023/04/26 10:09:49;;;;;;;0.70;0.70;;;15.50;55.00;;;;;;4996083;28;20403;-70
2023/04/26 10:12:17;;;;;;;0.77;0.77;;;15.60;54.60;;;;;;4995916;28;20451;-69
2023/04/26 10:14:45;;;;;;;1.90;1.23;;;15.60;54.20;;;;;;4995938;28;20456;-69
2023/04/26 10:17:12;;;;;;;0.53;0.53;;;15.60;54.30;;;;;;4995601;28;20399;-69
2023/04/26 10:19:40;;;;;;;0.63;0.63;;;15.70;54.90;;;;;;4995821;28;20404;-69
2023/04/26 10:22:26;;;;;;;0.50;0.50;;;16.00;53.50;;;;;;4995728;28;20466;-69
2023/04/26 10:24:54;;;;;;;0.40;0.40;;;16.00;54.00;;;;;;4995666;28;20457;-70
2023/04/26 10:27:47;;;;;;;0.50;0.50;;;16.40;54.30;;;;;;4995165;28;20407;-69
2023/04/26 10:30:17;;;;;;;0.70;0.50;;;15.80;52.40;;;;;;4993240;28;20511;-69
2023/04/26 10:32:55;;;;;;;1.13;0.73;;;15.60;53.70;;;;;;4995621;28;20494;-69
2023/04/26 10:35:29;;;;;;;1.10;1.10;;;15.60;54.00;;;;;;4995358;28;20445;-69
2023/04/26 10:38:01;;;;;;;0.60;0.60;;;15.80;54.60;;;;;;4995322;28;20400;-69
2023/04/26 10:40:37;;;;;;;0.30;0.30;;;16.40;54.90;;;;;;4995538;28;20403;-69
2023/04/26 10:43:15;;;;;;;0.73;0.73;;;16.70;52.70;;;;;;4995501;28;20806;-70
2023/04/26 10:45:44;;;;;;;1.07;1.00;;;16.60;50.70;;;;;;4995287;28;20817;-69
2023/04/26 10:48:30;;;;;;;0.50;0.50;;;16.70;52.20;;;;;;4995113;28;20436;-70
2023/04/26 10:51:00;;;;;;;0.97;0.97;;;16.70;52.90;;;;;;4995242;28;20447;-70
2023/04/26 10:53:47;;;;;;;0.57;0.50;;;16.70;52.40;;;;;;4995037;28;20455;-69
2023/04/26 10:56:25;;;;;;;0.40;0.40;;;16.60;52.90;;;;;;4994976;28;20392;-69
2023/04/26 10:59:10;;;;;;;0.50;0.50;;;16.60;53.10;;;;;;4994804;28;20434;-70
2023/04/26 11:01:37;;;;;;;0.50;0.50;;;16.50;52.80;;;;;;4995206;28;20907;-70
2023/04/26 11:04:10;;;;;;;0.30;0.30;;;16.40;52.90;;;;;;4994919;28;20442;-69
2023/04/26 11:06:56;;;;;;;15.43;1.23;;;16.10;52.00;;;;;;4993538;28;20561;-69
2023/04/26 11:09:47;;;;;;;1.30;1.27;;;15.50;53.30;;;;;;4995275;28;20465;-70
2023/04/26 11:12:14;;;;;;;8.23;0.90;;;15.30;54.40;;;;;;4994805;28;20474;-69
2023/04/26 11:14:45;;;;;;;0.30;0.30;;;15.10;54.70;;;;;;4993408;28;20446;-69
2023/04/26 11:17:11;;;;;;;0.60;0.60;;;15.20;54.50;;;;;;4994501;28;20907;-69
2023/04/26 11:19:37;;;;;;;0.40;0.40;;;15.10;52.70;;;;;;4994590;28;20759;-69
2023/04/26 11:22:06;;;;;;;0.40;0.40;;;14.70;52.50;;;;;;4994515;28;20407;-69
2023/04/26 11:24:37;;;;;;;0.47;0.40;;;14.80;53.20;;;;;;4994465;28;20521;-70
2023/04/26 11:27:10;;;;;;;0.83;0.83;;;14.30;54.50;;;;;;4994521;28;20415;-69
2023/04/26 11:29:36;;;;;;;0.50;0.50;;;14.30;54.70;;;;;;4994651;28;20844;-69
2023/04/26 11:32:02;;;;;;;0.63;0.60;;;14.50;54.60;;;;;;4994344;28;20969;-69
2023/04/26 11:34:32;;;;;;;1.00;1.00;;;15.00;54.50;;;;;;4994353;28;20434;-69
2023/04/26 11:36:58;;;;;;;0.60;0.60;;;15.50;54.10;;;;;;4994264;28;20454;-69
2023/04/26 11:39:24;;;;;;;0.87;0.87;;;15.90;52.80;;;;;;4993863;28;20562;-70
2023/04/26 11:41:50;;;;;;;0.70;0.70;;;16.20;50.60;;;;;;4994446;28;20505;-69
2023/04/26 11:44:19;;;;;;;0.43;0.43;;;16.30;49.60;;;;;;4994365;28;20199;-69
2023/04/26 11:46:49;;;;;;;0.40;0.40;;;16.20;49.30;;;;;;4994085;28;20408;-70
2023/04/26 11:49:16;;;;;;;0.47;0.47;;;16.40;51.60;;;;;;4994218;28;20927;-70
2023/04/26 11:51:42;;;;;;;0.57;0.57;;;16.50;53.10;;;;;;4993967;28;20462;-69
2023/04/26 11:54:07;;;;;;;0.50;0.50;;;16.50;51.80;;;;;;4994154;28;20431;-69
2023/04/26 11:56:33;;;;;;;0.60;0.60;;;16.50;52.20;;;;;;4994049;28;20403;-69
2023/04/26 11:58:59;;;;;;;0.40;0.40;;;16.40;50.70;;;;;;4993912;28;20183;-69
2023/04/26 12:01:29;;;;;;;0.40;0.40;;;16.40;50.50;;;;;;4994237;28;20179;-69
2023/04/26 12:03:58;;;;;;;0.30;0.30;;;16.20;52.30;;;;;;4994082;28;20728;-70
2023/04/26 12:06:31;;;;;;;0.70;0.63;;;16.40;53.40;;;;;;4994256;28;20503;-69
2023/04/26 12:09:00;;;;;;;0.50;0.50;;;16.30;52.40;;;;;;4993972;28;20419;-70
2023/04/26 12:11:25;;;;;;;0.80;0.80;;;16.30;52.10;;;;;;4993825;28;20545;-70
2023/04/26 12:13:51;;;;;;;1.10;1.03;;;16.20;53.20;;;;;;4993827;28;20479;-69
2023/04/26 12:16:17;;;;;;;0.50;0.50;;;16.40;52.10;;;;;;4994054;28;20411;-69
2023/04/26 12:18:49;;;;;;;1.03;0.93;;;16.50;53.60;;;;;;4993891;28;20226;-70
2023/04/26 12:21:15;;;;;;;0.67;0.67;;;16.60;53.60;;;;;;4994378;28;20263;-69
2023/04/26 12:23:41;;;;;;;0.77;0.77;;;16.60;53.60;;;;;;4993935;28;20427;-69
2023/04/26 12:26:09;;;;;;;1.00;0.87;;;16.50;51.00;;;;;;4993880;28;20439;-69
2023/04/26 12:28:36;;;;;;;0.53;0.50;;;16.40;50.80;;;;;;4993660;28;20173;-69
2023/04/26 12:31:03;;;;;;;0.40;0.40;;;16.10;51.70;;;;;;4993960;28;20459;-69
2023/04/26 12:33:29;;;;;;;0.60;0.50;;;15.80;52.90;;;;;;4993789;28;20430;-69
2023/04/26 12:35:56;;;;;;;0.87;0.87;;;15.20;51.70;;;;;;4993761;28;20490;-69
2023/04/26 12:38:22;;;;;;;0.40;0.40;;;14.40;53.60;;;;;;4993547;28;20724;-69
2023/04/26 12:40:48;;;;;;;0.40;0.40;;;14.00;54.80;;;;;;4994092;28;20502;-69
2023/04/26 12:43:15;;;;;;;0.90;0.67;;;14.50;60.90;;;;;;4993715;28;20177;-70
2023/04/26 12:45:41;;;;;;;1.43;1.33;;;14.40;57.80;;;;;;4993790;28;20168;-69
2023/04/26 12:48:07;;;;;;;2.23;0.93;;;14.60;55.30;;;;;;4993534;28;20409;-69
2023/04/26 12:50:32;;;;;;;1.00;0.90;;;14.40;57.70;;;;;;4996493;28;20411;-69
2023/04/26 12:53:00;;;;;;;1.03;1.03;;;14.00;58.70;;;;;;4997195;28;20215;-70